createdAt,value
2022-09-04T00:00:12.308Z,13.23
2022-09-04T00:02:51.371Z,13.21
2022-09-04T00:05:31.623Z,13.20
2022-09-04T00:08:42.792Z,13.16
2022-09-04T00:11:38.277Z,13.10
2022-09-04T00:14:10.448Z,13.11
2022-09-04T00:17:00.204Z,13.13
2022-09-04T00:19:36.372Z,13.14
2022-09-04T00:22:16.170Z,13.16
2022-09-04T00:24:51.346Z,13.17
2022-09-04T00:27:24.292Z,13.19
2022-09-04T00:30:11.706Z,13.18
2022-09-04T00:32:51.945Z,13.19
2022-09-04T00:35:32.982Z,13.18
2022-09-04T00:38:06.779Z,13.18
2022-09-04T00:40:41.108Z,13.20
2022-09-04T00:43:27.306Z,13.21
2022-09-04T00:46:23.321Z,13.25
2022-09-04T00:49:21.054Z,13.28
2022-09-04T00:52:09.179Z,13.27
2022-09-04T00:55:13.932Z,13.24
2022-09-04T00:57:55.492Z,13.26
2022-09-04T01:00:24.163Z,13.25
2022-09-04T01:03:20.858Z,13.26
2022-09-04T01:06:19.332Z,13.18
2022-09-04T01:09:09.417Z,13.11
2022-09-04T01:12:21.724Z,13.10
2022-09-04T01:15:00.701Z,13.05
2022-09-04T01:17:43.935Z,12.98
2022-09-04T01:20:41.395Z,12.91
2022-09-04T01:23:27.762Z,12.83
2022-09-04T01:26:06.174Z,12.80
2022-09-04T01:28:54.523Z,12.77
2022-09-04T01:31:39.219Z,12.77
2022-09-04T01:34:36.765Z,12.79
2022-09-04T01:37:20.497Z,12.77
2022-09-04T01:40:13.135Z,12.76
2022-09-04T01:43:07.905Z,12.80
2022-09-04T01:46:13.212Z,12.78
2022-09-04T01:48:46.447Z,12.75
2022-09-04T01:51:25.169Z,12.73
2022-09-04T01:54:12.975Z,12.70
2022-09-04T01:56:49.609Z,12.68
2022-09-04T01:59:24.499Z,12.69
2022-09-04T02:01:54.729Z,12.71
2022-09-04T02:04:56.562Z,12.71
2022-09-04T02:07:29.339Z,12.70
2022-09-04T02:10:24.992Z,12.61
2022-09-04T02:13:20.477Z,12.74
2022-09-04T02:16:20.244Z,12.64
2022-09-04T02:18:54.537Z,12.61
2022-09-04T02:21:40.968Z,12.59
2022-09-04T02:24:08.062Z,12.56
2022-09-04T02:26:51.410Z,12.54
2022-09-04T02:29:33.396Z,12.52
2022-09-04T02:32:04.003Z,12.53
2022-09-04T02:34:41.981Z,12.57
2022-09-04T02:37:27.092Z,12.54
2022-09-04T02:40:12.559Z,12.51
2022-09-04T02:43:17.282Z,12.50
2022-09-04T02:46:14.191Z,12.52
2022-09-04T02:49:03.818Z,12.56
2022-09-04T02:51:55.846Z,12.55
2022-09-04T02:55:00.483Z,12.52
2022-09-04T02:57:39.695Z,12.50
2022-09-04T03:00:21.097Z,12.48
2022-09-04T03:03:05.786Z,12.55
2022-09-04T03:05:43.342Z,12.54
2022-09-04T03:08:25.315Z,12.40
2022-09-04T03:11:10.971Z,12.44
2022-09-04T03:13:59.636Z,12.36
2022-09-04T03:16:30.667Z,12.36
2022-09-04T03:19:16.408Z,12.39
2022-09-04T03:22:01.094Z,12.35
2022-09-04T03:25:00.282Z,12.20
2022-09-04T03:27:31.293Z,12.16
2022-09-04T03:30:10.803Z,12.20
2022-09-04T03:32:54.522Z,12.19
2022-09-04T03:35:27.551Z,12.19
2022-09-04T03:38:24.172Z,12.15
2022-09-04T03:41:07.384Z,12.20
2022-09-04T03:43:37.156Z,12.21
2022-09-04T03:46:14.010Z,12.16
2022-09-04T03:49:15.312Z,12.12
2022-09-04T03:52:20.927Z,12.08
2022-09-04T03:55:10.604Z,12.04
2022-09-04T03:58:05.803Z,11.94
2022-09-04T04:01:07.000Z,11.85
2022-09-04T04:03:57.598Z,11.79
2022-09-04T04:06:33.710Z,11.82
2022-09-04T04:09:19.085Z,11.83
2022-09-04T04:12:03.953Z,11.81
2022-09-04T04:15:02.093Z,11.91
2022-09-04T04:17:39.472Z,11.91
2022-09-04T04:20:51.361Z,11.94
2022-09-04T04:23:29.883Z,11.93
2022-09-04T04:26:27.642Z,11.95
2022-09-04T04:29:08.886Z,11.96
2022-09-04T04:31:45.003Z,11.97
2022-09-04T04:34:37.126Z,11.96
2022-09-04T04:37:24.486Z,11.98
2022-09-04T04:40:39.106Z,11.95
2022-09-04T04:43:11.677Z,11.89
2022-09-04T04:45:53.024Z,11.90
2022-09-04T04:48:36.937Z,11.90
2022-09-04T04:51:12.936Z,11.89
2022-09-04T04:53:49.847Z,11.93
2022-09-04T04:56:58.254Z,11.93
2022-09-04T04:59:38.362Z,11.94
2022-09-04T05:02:24.815Z,11.98
2022-09-04T05:05:25.173Z,12.07
2022-09-04T05:08:08.566Z,12.08
2022-09-04T05:10:51.122Z,12.16
2022-09-04T05:13:41.486Z,12.18
2022-09-04T05:16:19.070Z,12.17
2022-09-04T05:18:55.481Z,12.27
2022-09-04T05:21:41.353Z,12.38
2022-09-04T05:24:22.845Z,12.40
2022-09-04T05:27:31.653Z,12.59
2022-09-04T05:30:03.806Z,12.69
2022-09-04T05:35:40.606Z,12.80
2022-09-04T05:38:51.572Z,12.89
2022-09-04T05:41:21.871Z,12.95
2022-09-04T05:44:01.866Z,13.02
2022-09-04T05:47:06.202Z,13.01
2022-09-04T05:49:48.087Z,12.99
2022-09-04T05:52:56.813Z,13.02
2022-09-04T05:55:39.529Z,13.18
2022-09-04T05:58:17.856Z,13.32
2022-09-04T06:00:51.624Z,13.40
2022-09-04T06:03:24.562Z,13.50
2022-09-04T06:05:59.488Z,13.58
2022-09-04T06:08:57.813Z,13.69
2022-09-04T06:12:02.447Z,13.87
2022-09-04T06:14:32.412Z,14.02
2022-09-04T06:17:05.493Z,14.09
2022-09-04T06:20:10.021Z,14.16
2022-09-04T06:22:56.079Z,14.21
2022-09-04T06:26:02.176Z,14.33
2022-09-04T06:29:08.257Z,14.41
2022-09-04T06:32:10.811Z,14.57
2022-09-04T06:35:02.674Z,14.71
2022-09-04T06:37:44.676Z,14.94
2022-09-04T06:40:29.190Z,15.13
2022-09-04T06:43:08.446Z,15.36
2022-09-04T06:46:02.325Z,15.50
2022-09-04T06:48:48.445Z,15.63
2022-09-04T06:51:37.284Z,15.63
2022-09-04T06:54:19.366Z,15.71
2022-09-04T06:56:56.419Z,15.82
2022-09-04T06:59:46.822Z,15.83
2022-09-04T07:02:32.420Z,15.78
2022-09-04T07:05:14.331Z,15.90
2022-09-04T07:08:13.334Z,16.06
2022-09-04T07:10:51.620Z,16.22
2022-09-04T07:13:33.688Z,16.31
2022-09-04T07:16:23.938Z,16.50
2022-09-04T07:19:15.740Z,16.61
2022-09-04T07:22:18.244Z,16.78
2022-09-04T07:25:12.915Z,16.84
2022-09-04T07:28:06.386Z,16.84
2022-09-04T07:30:42.544Z,16.97
2022-09-04T07:33:24.903Z,17.19
2022-09-04T07:35:57.826Z,17.37
2022-09-04T07:38:59.344Z,17.51
2022-09-04T07:41:44.454Z,17.72
2022-09-04T07:44:39.134Z,17.94
2022-09-04T07:47:18.821Z,18.07
2022-09-04T07:49:54.849Z,18.25
2022-09-04T07:52:33.857Z,18.34
2022-09-04T07:55:24.253Z,18.57
2022-09-04T07:57:54.371Z,18.79
2022-09-04T08:00:23.014Z,19.02
2022-09-04T08:03:27.633Z,19.23
2022-09-04T08:06:29.170Z,19.35
2022-09-04T08:09:24.034Z,19.56
2022-09-04T08:12:18.803Z,19.81
2022-09-04T08:15:02.017Z,19.96
2022-09-04T08:17:43.257Z,20.11
2022-09-04T08:20:22.192Z,20.24
2022-09-04T08:23:25.923Z,20.24
2022-09-04T08:26:18.733Z,20.22
2022-09-04T08:29:14.256Z,20.19
2022-09-04T08:31:58.646Z,20.40
2022-09-04T08:34:49.347Z,20.64
2022-09-04T08:37:53.146Z,20.78
2022-09-04T08:40:24.355Z,20.99
2022-09-04T08:43:19.206Z,21.19
2022-09-04T08:46:05.315Z,21.44
2022-09-04T08:49:10.708Z,21.75
2022-09-04T08:52:10.428Z,21.89
2022-09-04T08:54:37.905Z,21.93
2022-09-04T08:57:39.646Z,22.02
2022-09-04T09:00:17.646Z,22.10
2022-09-04T09:03:02.733Z,22.15
2022-09-04T09:06:06.986Z,22.28
2022-09-04T09:08:55.961Z,22.42
2022-09-04T09:11:45.088Z,22.53
2022-09-04T09:14:15.093Z,22.59
2022-09-04T09:16:50.990Z,22.54
2022-09-04T09:19:52.305Z,22.44
2022-09-04T09:22:31.865Z,22.37
2022-09-04T09:25:24.298Z,22.52
2022-09-04T09:27:57.246Z,22.69
2022-09-04T09:30:25.381Z,22.76
2022-09-04T09:33:34.755Z,22.84
2022-09-04T09:36:07.682Z,22.77
2022-09-04T09:39:02.452Z,22.72
2022-09-04T09:41:44.530Z,22.80
2022-09-04T09:44:36.122Z,22.91
2022-09-04T09:47:42.814Z,23.04
2022-09-04T09:50:22.685Z,23.13
2022-09-04T09:53:08.404Z,23.40
2022-09-04T09:56:09.733Z,23.46
2022-09-04T09:58:55.703Z,23.41
2022-09-04T10:01:25.715Z,23.42
2022-09-04T10:04:28.689Z,23.50
2022-09-04T10:07:21.606Z,23.55
2022-09-04T10:10:05.047Z,23.45
2022-09-04T10:12:35.053Z,23.57
2022-09-04T10:15:14.835Z,23.72
2022-09-04T10:18:21.239Z,23.81
2022-09-04T10:21:13.177Z,23.81
2022-09-04T10:24:07.184Z,23.86
2022-09-04T10:26:59.167Z,24.02
2022-09-04T10:29:38.633Z,23.89
2022-09-04T10:32:34.325Z,23.64
2022-09-04T10:35:11.175Z,23.79
2022-09-04T10:38:02.515Z,23.86
2022-09-04T10:40:46.934Z,23.94
2022-09-04T10:43:36.092Z,23.43
2022-09-04T10:46:30.118Z,23.00
2022-09-04T10:49:07.015Z,23.31
2022-09-04T10:51:54.426Z,23.69
2022-09-04T10:54:48.434Z,23.94
2022-09-04T10:57:23.177Z,23.94
2022-09-04T11:00:08.148Z,23.73
2022-09-04T11:03:14.046Z,23.75
2022-09-04T11:06:18.955Z,23.31
2022-09-04T11:08:46.100Z,22.92
2022-09-04T11:11:53.061Z,23.08
2022-09-04T11:15:00.550Z,23.36
2022-09-04T11:17:39.783Z,23.73
2022-09-04T11:20:24.228Z,23.95
2022-09-04T11:23:12.971Z,23.72
2022-09-04T11:26:17.539Z,23.18
2022-09-04T11:29:14.696Z,22.73
2022-09-04T11:31:48.541Z,22.96
2022-09-04T11:34:21.575Z,23.38
2022-09-04T11:37:10.282Z,23.39
2022-09-04T11:40:12.546Z,23.09
2022-09-04T11:43:04.001Z,23.14
2022-09-04T11:46:15.817Z,23.47
2022-09-04T11:48:53.370Z,23.65
2022-09-04T11:51:40.291Z,23.53
2022-09-04T11:54:43.603Z,23.10
2022-09-04T11:57:44.356Z,22.74
2022-09-04T12:00:17.603Z,22.45
2022-09-04T12:03:14.090Z,22.28
2022-09-04T12:05:58.208Z,22.37
2022-09-04T12:08:27.794Z,22.74
2022-09-04T12:11:03.929Z,23.04
2022-09-04T12:13:44.977Z,23.23
2022-09-04T12:16:53.472Z,23.31
2022-09-04T12:19:59.136Z,23.34
2022-09-04T12:22:50.376Z,23.54
2022-09-04T12:25:45.116Z,23.66
2022-09-04T12:28:35.068Z,23.70
2022-09-04T12:31:05.415Z,23.75
2022-09-04T12:33:44.692Z,23.73
2022-09-04T12:36:38.889Z,23.73
2022-09-04T12:39:36.744Z,23.81
2022-09-04T12:42:22.724Z,23.80
2022-09-04T12:45:08.014Z,23.84
2022-09-04T12:47:41.905Z,23.76
2022-09-04T12:50:57.935Z,23.68
2022-09-04T12:53:41.765Z,23.71
2022-09-04T12:56:23.042Z,23.70
2022-09-04T12:58:50.614Z,23.65
2022-09-04T13:01:24.495Z,23.71
2022-09-04T13:03:51.907Z,23.72
2022-09-04T13:06:53.506Z,23.74
2022-09-04T13:10:15.131Z,23.78
2022-09-04T13:13:03.805Z,23.76
2022-09-04T13:16:22.184Z,23.77
2022-09-04T13:18:58.905Z,23.79
2022-09-04T13:21:44.602Z,23.80
2022-09-04T13:24:26.852Z,23.69
2022-09-04T13:27:16.128Z,23.43
2022-09-04T13:30:03.490Z,23.14
2022-09-04T13:32:38.009Z,22.86
2022-09-04T13:35:19.304Z,22.51
2022-09-04T13:37:54.686Z,22.11
2022-09-04T13:40:28.785Z,22.02
2022-09-04T13:43:16.842Z,21.88
2022-09-04T13:45:47.654Z,21.87
2022-09-04T13:48:44.655Z,21.91
2022-09-04T13:51:40.526Z,21.91
2022-09-04T13:54:19.443Z,21.86
2022-09-04T13:57:05.286Z,21.79
2022-09-04T13:59:33.305Z,21.79
2022-09-04T14:02:08.906Z,21.81
2022-09-04T14:04:44.337Z,21.76
2022-09-04T14:07:24.809Z,21.66
2022-09-04T14:09:56.315Z,21.64
2022-09-04T14:12:55.052Z,21.65
2022-09-04T14:15:49.046Z,21.68
2022-09-04T14:18:45.606Z,21.72
2022-09-04T14:21:42.625Z,21.75
2022-09-04T14:24:33.000Z,21.79
2022-09-04T14:27:43.974Z,21.88
2022-09-04T14:30:18.450Z,21.94
2022-09-04T14:33:23.429Z,22.00
2022-09-04T14:36:12.826Z,22.06
2022-09-04T14:39:25.288Z,22.06
2022-09-04T14:42:22.498Z,22.05
2022-09-04T14:45:10.037Z,22.00
2022-09-04T14:47:55.163Z,21.93
2022-09-04T14:50:31.212Z,21.82
2022-09-04T14:53:03.990Z,21.78
2022-09-04T14:55:38.808Z,21.64
2022-09-04T14:58:30.962Z,21.71
2022-09-04T15:01:07.372Z,21.78
2022-09-04T15:03:45.837Z,21.72
2022-09-04T15:06:19.373Z,21.66
2022-09-04T15:08:50.810Z,21.63
2022-09-04T15:11:35.482Z,21.58
2022-09-04T15:14:24.559Z,21.60
2022-09-04T15:16:56.026Z,21.56
2022-09-04T15:19:46.936Z,21.48
2022-09-04T15:22:51.692Z,21.41
2022-09-04T15:25:18.795Z,21.36
2022-09-04T15:28:00.171Z,21.32
2022-09-04T15:30:40.529Z,21.28
2022-09-04T15:33:11.648Z,21.24
2022-09-04T15:35:40.897Z,21.24
2022-09-04T15:38:22.648Z,21.22
2022-09-04T15:41:15.754Z,21.16
2022-09-04T15:43:53.968Z,21.17
2022-09-04T15:46:33.560Z,21.14
2022-09-04T15:49:23.810Z,21.12
2022-09-04T15:52:21.325Z,21.08
2022-09-04T15:54:59.272Z,21.09
2022-09-04T15:57:49.537Z,21.10
2022-09-04T16:00:23.129Z,21.06
2022-09-04T16:03:00.728Z,21.07
2022-09-04T16:05:50.453Z,21.01
2022-09-04T16:08:25.917Z,20.98
2022-09-04T16:11:18.690Z,20.97
2022-09-04T16:13:58.165Z,20.93
2022-09-04T16:16:34.358Z,20.90
2022-09-04T16:19:32.063Z,20.78
2022-09-04T16:22:21.653Z,20.71
2022-09-04T16:24:55.056Z,20.76
2022-09-04T16:27:28.111Z,20.73
2022-09-04T16:29:56.983Z,20.71
2022-09-04T16:32:29.012Z,20.67
2022-09-04T16:35:15.133Z,20.62
2022-09-04T16:38:10.135Z,20.55
2022-09-04T16:40:49.652Z,20.47
2022-09-04T16:43:34.411Z,20.45
2022-09-04T16:46:28.299Z,20.39
2022-09-04T16:49:04.642Z,20.34
2022-09-04T16:51:41.900Z,20.29
2022-09-04T16:54:37.495Z,20.26
2022-09-04T16:57:15.315Z,20.19
2022-09-04T16:59:48.734Z,20.15
2022-09-04T17:02:29.515Z,20.11
2022-09-04T17:05:40.204Z,20.09
2022-09-04T17:08:15.177Z,20.00
2022-09-04T17:11:07.010Z,19.95
2022-09-04T17:13:49.967Z,19.88
2022-09-04T17:16:23.381Z,19.82
2022-09-04T17:18:54.840Z,19.77
2022-09-04T17:25:24.390Z,19.71
2022-09-04T17:29:08.801Z,19.54
2022-09-04T17:29:13.398Z,19.61
2022-09-04T17:30:40.501Z,19.45
2022-09-04T17:37:13.351Z,19.39
2022-09-04T17:40:38.227Z,19.31
2022-09-04T17:40:44.479Z,19.25
2022-09-04T17:43:19.148Z,19.15
2022-09-04T17:46:06.883Z,19.08
2022-09-04T17:48:42.493Z,19.01
2022-09-04T17:51:18.202Z,18.96
2022-09-04T17:53:53.341Z,18.77
2022-09-04T17:56:36.587Z,18.83
2022-09-04T17:59:08.499Z,18.72
2022-09-04T18:01:43.384Z,18.74
2022-09-04T18:04:31.442Z,18.70
2022-09-04T18:08:07.753Z,18.63
2022-09-04T18:10:25.908Z,18.56
2022-09-04T18:13:05.256Z,18.53
2022-09-04T18:15:49.328Z,18.51
2022-09-04T18:18:27.811Z,18.47
2022-09-04T18:21:44.602Z,18.42
2022-09-04T18:24:49.045Z,18.36
2022-09-04T18:27:25.333Z,18.28
2022-09-04T18:32:43.225Z,18.25
2022-09-04T18:37:22.644Z,18.21
2022-09-04T18:37:27.094Z,18.13
2022-09-04T18:39:08.939Z,18.09
2022-09-04T18:48:17.342Z,18.01
2022-09-04T18:50:29.376Z,17.96
2022-09-04T18:50:33.993Z,17.82
2022-09-04T18:51:14.060Z,17.85
2022-09-04T18:53:48.690Z,17.82
2022-09-04T18:56:42.728Z,17.77
2022-09-04T18:59:33.128Z,17.67
2022-09-04T19:02:29.293Z,17.62
2022-09-04T19:05:24.537Z,17.60
2022-09-04T19:08:00.093Z,17.56
2022-09-04T19:10:45.380Z,17.51
2022-09-04T19:13:36.707Z,17.48
2022-09-04T19:16:10.860Z,17.42
2022-09-04T19:18:48.412Z,17.40
2022-09-04T19:21:19.854Z,17.35
2022-09-04T19:24:05.507Z,17.32
2022-09-04T19:26:38.993Z,17.25
2022-09-04T19:29:17.360Z,17.22
2022-09-04T19:31:58.265Z,17.18
2022-09-04T19:34:38.395Z,17.13
2022-09-04T19:38:22.574Z,17.10
2022-09-04T19:45:55.933Z,17.05
2022-09-04T19:46:08.501Z,16.87
2022-09-04T19:46:29.757Z,16.96
2022-09-04T19:51:24.236Z,16.91
2022-09-04T19:53:32.177Z,16.84
2022-09-04T19:55:23.460Z,16.76
2022-09-04T19:58:05.239Z,16.75
2022-09-04T20:00:43.829Z,16.70
2022-09-04T20:03:30.412Z,16.61
2022-09-04T20:06:21.786Z,16.61
2022-09-04T20:09:11.093Z,16.57
2022-09-04T20:11:49.413Z,16.54
2022-09-04T20:14:29.137Z,16.37
2022-09-04T20:17:09.528Z,16.44
2022-09-04T20:19:47.042Z,16.37
2022-09-04T20:22:25.529Z,16.32
2022-09-04T20:25:17.463Z,16.33
2022-09-04T20:27:50.018Z,16.28
2022-09-04T20:30:22.438Z,16.27
2022-09-04T20:33:08.221Z,16.25
2022-09-04T20:35:38.269Z,16.21
2022-09-04T20:38:33.169Z,16.19
2022-09-04T20:41:32.846Z,16.10
2022-09-04T20:44:14.930Z,16.10
2022-09-04T20:52:49.921Z,16.10
2022-09-04T20:53:00.395Z,16.06
2022-09-04T20:53:07.770Z,16.02
2022-09-04T20:56:00.811Z,16.05
2022-09-04T21:03:10.111Z,16.04
2022-09-04T21:03:19.366Z,15.99
2022-09-04T21:05:14.003Z,15.91
2022-09-04T21:08:15.866Z,15.85
2022-09-04T21:11:04.265Z,15.84
2022-09-04T21:13:56.405Z,15.80
2022-09-04T21:16:45.039Z,15.77
2022-09-04T21:19:33.208Z,15.73
2022-09-04T21:22:44.945Z,15.72
2022-09-04T21:25:31.460Z,15.67
2022-09-04T21:28:10.866Z,15.60
2022-09-04T21:31:13.494Z,15.59
2022-09-04T21:34:16.321Z,15.51
2022-09-04T21:36:53.825Z,15.45
2022-09-04T21:39:58.622Z,15.40
2022-09-04T21:43:01.286Z,15.38
2022-09-04T21:45:40.811Z,15.30
2022-09-04T21:48:31.736Z,15.26
2022-09-04T21:51:28.372Z,15.23
2022-09-04T21:54:04.610Z,15.22
2022-09-04T22:02:25.356Z,15.17
2022-09-04T22:02:44.602Z,15.15
2022-09-04T22:03:03.042Z,15.13
2022-09-04T22:05:39.708Z,15.11
2022-09-04T22:13:31.083Z,15.10
2022-09-04T22:13:31.595Z,15.06
2022-09-04T22:14:52.809Z,15.04
2022-09-04T22:17:59.649Z,15.03
2022-09-04T22:21:04.095Z,15.03
2022-09-04T22:23:44.902Z,14.99
2022-09-04T22:26:27.081Z,14.95
2022-09-04T22:29:12.533Z,14.92
2022-09-04T22:32:20.304Z,14.87
2022-09-04T22:35:31.362Z,14.87
2022-09-04T22:38:15.529Z,14.84
2022-09-04T22:40:56.224Z,14.85
2022-09-04T22:43:26.977Z,14.85
2022-09-04T22:46:17.751Z,14.83
2022-09-04T22:49:28.259Z,14.82
2022-09-04T22:52:13.507Z,14.79
2022-09-04T22:54:54.032Z,14.76
2022-09-04T22:57:33.006Z,14.70
2022-09-04T23:00:22.823Z,14.70
2022-09-04T23:03:08.348Z,14.68
2022-09-04T23:06:08.837Z,14.62
2022-09-04T23:13:52.293Z,14.63
2022-09-04T23:13:53.998Z,14.65
2022-09-04T23:15:08.262Z,14.59
2022-09-04T23:19:45.273Z,14.58
2022-09-04T23:26:39.235Z,14.57
2022-09-04T23:26:44.822Z,14.54
2022-09-04T23:27:28.600Z,14.45
2022-09-04T23:30:27.630Z,14.50
2022-09-04T23:33:27.462Z,14.53
2022-09-04T23:36:33.230Z,14.50
2022-09-04T23:39:36.542Z,14.51
2022-09-04T23:42:21.293Z,14.51
2022-09-04T23:44:54.930Z,14.52
2022-09-04T23:47:58.727Z,14.52
2022-09-04T23:50:34.783Z,14.48
2022-09-04T23:53:41.624Z,14.48
2022-09-04T23:56:22.444Z,14.43
2022-09-04T23:59:24.125Z,14.43
